L'image de la webcam se met à jour toutes les 30s.
La jauge météo se met à jour toutes les 10s d'après les données envoyées par la station météo du club.
Les graphiques se mettent à jour toutes les 5min et ne s'affichent que si la station est en ligne
Surfaces en herbe praticables..
MAJ le 03/08/2022 11h00 DDE
METAR de LFRD (Source NOAA)
LFRD 121530Z AUTO 01010KT CAVOK 30/14 Q1014 NOSIG

TAF de LFRD (Source NOAA)
TAF LFRD 121100Z 1212/1312 36010KT CAVOK BECMG 1218/1220 06010KT BECMG 1220/1222 VRB05KT PROB40 TEMPO 1302/1306 3000 BR BECMG 1310/1312 36010KT
Ayez la webcam en fond d'écran de votre téléphone ou de votre tablette Android avec l'appli du club.